AirNav   Bose ProFlight Aviation Headset
 
 1646 users online  

9CL2 Christensen Ranch Airport
Hollister, California, USA

GOING TO HOLLISTER?


FAA INFORMATION EFFECTIVE 13 SEPTEMBER 2018

Location

FAA Identifier: 9CL2
Lat/Long: 36-52-17.8320N / 121-20-13.7540W
36-52.297200N / 121-20.229233W
36.8716200 / -121.3371539
(estimated)
Elevation: 380 ft. / 116 m (estimated)
Variation: 15E (1985)
From city: 3 miles NE of HOLLISTER, CA
Time zone: UTC -7 (UTC -8 during Standard Time)
Zip code: 95023

Airport Operations

Airport use: Private use. Permission required prior to landing
Activation date: 11/1970
Control tower: no
ARTCC: OAKLAND CENTER
FSS: OAKLAND FLIGHT SERVICE STATION
Attendance: CONTINUOUS
Wind indicator: no
Segmented circle: no

Airport Communications

WX AWOS-3 at CVH (4 nm W): 120.425 (831-636-4394)
WX AWOS-3P at E16 (18 nm NW): 118.350 (408-918-7724)
WX ASOS at SNS (18 nm SW): PHONE 831-422-2830

Nearby radio navigation aids

VOR radial/distance  VOR name  Freq  Var
SNSr029/17.9SALINAS VORTAC117.3017E
PXNr273/28.4PANOCHE VORTAC112.6016E

 
NDB name  Hdg/Dist  Freq  Var  ID
CHUALAR000/23.826316EUAD ..- .- -..

Airport Services

Airframe service: NONE
Powerplant service: NONE

Runway Information

Runway 7/25

Dimensions: 3000 x 50 ft. / 914 x 15 m
Surface: asphalt
RUNWAY 7  RUNWAY 25
Traffic pattern: rightright

Airport Ownership and Management from official FAA records

Ownership: Privately-owned
Owner: F. L. CHRISTENSEN
PO BOX 25033
JACKSON, WY 83001
Phone 307-733-1789
Manager: Phone 408-637-7406

Additional Remarks

PVT USE ARPT LCTD ADJ TO RANCH RESIDENCE.
FOR CD CTC NORCAL APCH AT 916-361-3748.

Instrument Procedures

There are no published instrument procedures at 9CL2.

Some nearby airports with instrument procedures:

KCVH - Hollister Municipal Airport (4 nm W)
E16 - San Martin Airport (18 nm NW)
KSNS - Salinas Municipal Airport (18 nm SW)
KWVI - Watsonville Municipal Airport (22 nm W)
KOAR - Marina Municipal Airport (23 nm SW)
 
Loc | Ops | Rwys | IFR | FBO | Links
Com | Nav | Svcs | Stats | Notes


 
Area around 9CL2 (Christensen Ranch Airport)
 
Road maps at: MapQuest Bing Google
 
Aerial photo
No photo
 
Sectional chart

 
Airport distance calculator
Flying to Christensen Ranch Airport? Find the distance to fly.

From to 9CL2

Sunrise and sunset
Times for 19-Sep-2018
 Local
(UTC-7)
 Zulu
(UTC)
Morning civil twilight06:2613:26
Sunrise06:5213:52
Sunset19:0602:06
Evening civil twilight19:3202:32

Current date and time
Zulu (UTC)  19-Sep-2018 19:42:24
Local (UTC-7)  19-Sep-2018 12:42:24
 
METAR
KCVH 
4nm W 
191915Z AUTO 00000KT 10SM CLR 19/11 A2990 RMK A01
KSNS 
18nm SW 
191853Z VRB03KT 7SM CLR 18/10 A2991 RMK AO2 SLP136 T01780100
KE16 
18nm NW 
191915Z AUTO 00000KT 10SM CLR 19/10 A2992 RMK AO2
TAF
KSNS 
18nm SW 
191727Z 1918/2018 28009KT P6SM FEW014 FM192100 29013KT P6SM SKC FM200400 29008KT P6SM FEW014 FM200900 VRB04KT P6SM SCT012
NOTAMs
Click for the latest NOTAMs
NOTAMs are issued by the DoD/FAA and will open in a separate window not controlled by AirNav.

 

 
 

Would you like to see your business listed on this page?

 If your business provides an interesting product or service to pilots, flight crews, aircraft, or users of the Christensen Ranch Airport, you should consider listing it here.  To start the listing process, click on the button below
 
Add a business
 

Other Pages about Christensen Ranch Airport

Update a link
 
Copyright © AirNav, LLC. All rights reserved. Privacy Policy  Contact